Aérodrome :
LOGIN :

S'inscrire | Disclaimer

   EN    FR    IT 

 










Légende :    VFR   VFR Marginal   IFR   IFR Intensif   IFR Très Intensif
Visi : 
Plafond : 
>= 8 km
>= 3000ft
5 à 8 km
1000 à 3000 ft
1500m à 5 km
500 à 1000 ft
800 à 1500m
200 à 500 ft
< 800m
< 200 ft
Symboles :   Orages  Brouillard  Fortes neiges  Fortes précipitations  Vent > 20 kt
SIGMETs :   Divers  Orages  Givrage  Turbulence  Onde Orograph.  Cendres Volcan.






- Altitude de l'aérodrome : 2776 ft
- Code IATA : VLL


LEVD - Valladolid

DERNIER METAR :
  • 100400Z AUTO 26003KT 0200 0150SW R23/0500N R05/0450N FZFG VV001 M02/M02 Q1031

METARs EXPIRÉS :
  • 100330Z AUTO 00000KT 0200 0100 R23/0600N R05/0600N FZFG VV001 M02/M02 Q1031
  • 100300Z AUTO VRB02KT 0150 0100SW R23/0375U R05/0350N FZFG VV001 M02/M02 Q1031
  • 100230Z AUTO 10003KT 0150 0050SW R23/0600U R05/0250N FZFG VV001 M01/M01 Q1031
  • 100200Z AUTO VRB02KT 0100 0050SW R23/0375N R05/0250N FZFG VV001 M01/M01 Q1031
  • 100130Z AUTO 00000KT 0150 0050SW R23/0600U R05/0550U FZFG VV001 M01/M01 Q1031

TAF TAF LEVD
Valide du 10 à 00h jusqu'au 11 à 00h UTC


092300Z 1000/1024 VRB02KT CAVOK TX09/1015Z TNM02/1005Z
PROB40
TEMPO 1000/1009 2500 BR
PROB30
TEMPO 1000/1008 0300 FZFG BCFG BKN002



MET'MAP, la Météo Aéronautique d'un coup d'oeil ! - Copyright ORBIFLY Décembre 2007 - Disclaimer

ORBIFLY MET'MAP TEAM :

Programmation & Développement : Alexandra Zaïnal
Sur une idée originale de : Baudouin d'Aumeries
Assistance à la programmation : Marc-Olivier Méhu
Soutien technique & logistique : Manuel Goepfert

Contact : metmap@orbifly.com




SOURCES & CREDITS :

   NOAA